To NAV CANADA Home Page Login to a new session Search on AWWS site Feedback and Comments Disclaimer Vers la page française équivalente Tips FAQ What's new on the site To the Forecasts and Observations / NOTAM section To "File a Flight Plan" website Publications and other links Update of the User's profile FIC Telephone Numbers My Weather Data Folder Route Weather Data Regional Weather Data Local Weather Data To the Forecasts and Observations / NOTAM section
Request Generated 04/25/2015 at 23:15:52 UTC . Weather information available at that time is displayed.

METAR/TAF

CARTWRIGHT/NL    

METAR CWCA 252300Z 07014G19KT 5SM BR OVC007 01/00 A3005 RMK ST8 CLD
TPG HLS NW-NE SLP176=
METAR CWCA 252200Z CCA 07012KT 5SM BR OVC007 01/00 A3004 RMK ST8 CLD
TPG HLS NW- NE SLP175=
METAR CWCA 252200Z 07012KT 5SM BR OVC007 01/00 A3004 RMK ST8 CLD TPG
HLS SLP175=
METAR CWCA 252100Z 08010G17KT 5SM BR OVC007 01/00 A3004 RMK ST8 CLD
TPG HLS NE SLP175=

TAF CYCA 251938Z 2520/2608 ADVISORY OFFSITE 07012KT 2SM -DZ BR OVC004
TEMPO 2520/2603 6SM BR OVC006
FM260300 07012G22KT 2SM -RA BR OVC004
RMK NXT FCST BY 260200Z=
Your time UTC time
Weather data provided by Environment Canada and NAV CANADA